createdAt,value
2019-04-10T08:17:19.948Z,10.80
2019-04-10T08:20:23.999Z,11.10
2019-04-10T08:23:28.200Z,11.50
2019-04-10T08:26:32.528Z,11.30
2019-04-10T08:29:36.496Z,10.90
2019-04-10T08:32:53.377Z,11.20
2019-04-10T08:35:45.814Z,10.30
2019-04-10T08:38:50.777Z,10.30
2019-04-10T08:41:54.891Z,10.10
2019-04-10T08:44:59.235Z,10.50
2019-04-10T08:48:03.605Z,10.70
2019-04-10T08:51:08.611Z,10.80
2019-04-10T08:54:14.062Z,10.90
2019-04-10T08:57:19.275Z,10.90
2019-04-10T09:00:23.241Z,10.10
2019-04-10T09:03:27.063Z,9.70
2019-04-10T09:06:31.519Z,9.50
2019-04-10T09:09:35.336Z,9.60
2019-04-10T09:12:39.229Z,9.60
2019-04-10T09:15:43.056Z,9.40
2019-04-10T09:18:47.652Z,9.10
2019-04-10T09:21:52.010Z,9.30
2019-04-10T09:24:55.984Z,9.00
2019-04-10T09:28:00.223Z,8.80
2019-04-10T09:31:05.139Z,8.90
2019-04-10T09:34:09.659Z,8.80
2019-04-10T09:37:13.586Z,8.80
2019-04-10T09:40:18.324Z,8.80
2019-04-10T09:43:23.120Z,8.80
2019-04-10T09:46:27.019Z,8.90
2019-04-10T09:49:38.229Z,8.90
2019-04-10T09:52:36.309Z,8.80
2019-04-10T09:55:40.496Z,8.80
2019-04-10T09:58:44.797Z,8.80
2019-04-10T10:01:48.678Z,8.90
2019-04-10T10:04:53.500Z,8.80
2019-04-10T10:07:57.990Z,9.10
2019-04-10T10:11:01.926Z,9.10
2019-04-10T10:14:06.145Z,9.30
2019-04-10T10:17:10.635Z,9.40
2019-04-10T10:20:15.436Z,9.40
2019-04-10T10:23:19.995Z,9.40
2019-04-10T10:26:24.031Z,9.50
2019-04-10T10:29:28.114Z,9.60
2019-04-10T10:32:33.036Z,9.30
2019-04-10T10:35:37.018Z,9.00
2019-04-10T10:38:40.887Z,9.20
2019-04-10T10:41:44.745Z,9.50
2019-04-10T10:44:48.567Z,9.50
2019-04-10T10:47:52.655Z,9.50
2019-04-10T10:50:56.727Z,9.60
2019-04-10T10:54:02.708Z,9.80
2019-04-10T10:57:06.967Z,9.70
2019-04-10T11:00:13.314Z,9.70
2019-04-10T11:03:18.174Z,9.60
2019-04-10T11:06:22.674Z,9.50
2019-04-10T11:09:26.611Z,9.70
2019-04-10T11:12:30.517Z,9.70
2019-04-10T11:15:34.424Z,10.00
2019-04-10T11:18:38.361Z,10.20
2019-04-10T11:21:42.915Z,9.80
2019-04-10T11:24:47.128Z,10.00
2019-04-10T11:27:51.615Z,10.20
2019-04-10T11:30:56.165Z,10.20
2019-04-10T11:34:00.287Z,10.10
2019-04-10T11:37:21.550Z,9.50
2019-04-10T11:40:12.454Z,9.60
2019-04-10T11:43:16.652Z,9.60
2019-04-10T11:46:22.500Z,9.70
2019-04-10T11:49:27.699Z,9.60
2019-04-10T11:52:38.648Z,9.60
2019-04-10T11:55:45.058Z,9.90
2019-04-10T11:58:49.450Z,10.00
2019-04-10T12:01:48.953Z,10.10
2019-04-10T12:04:57.639Z,9.80
2019-04-10T12:08:27.468Z,9.90
2019-04-10T12:14:08.649Z,9.40
2019-04-10T12:17:12.474Z,9.70
2019-04-10T12:20:16.710Z,9.80
2019-04-10T12:23:20.942Z,9.90
2019-04-10T12:26:25.516Z,10.30
2019-04-10T12:29:31.251Z,10.30
2019-04-10T12:32:35.518Z,10.20
2019-04-10T12:35:40.331Z,10.10
2019-04-10T12:38:44.597Z,10.20
2019-04-10T12:41:48.495Z,10.20
2019-04-10T12:44:52.426Z,10.20
2019-04-10T12:47:56.548Z,10.30
2019-04-10T12:51:01.385Z,10.30
2019-04-10T12:54:05.644Z,10.20
2019-04-10T12:57:10.555Z,10.10
2019-04-10T13:00:18.127Z,10.30
2019-04-10T13:03:22.963Z,10.50
2019-04-10T13:06:27.122Z,10.40
2019-04-10T13:09:31.763Z,10.20
2019-04-10T13:12:35.734Z,10.00
2019-04-10T13:15:43.453Z,10.20
2019-04-10T13:18:47.559Z,10.40
2019-04-10T13:21:51.633Z,10.50
2019-04-10T13:24:55.774Z,10.40
2019-04-10T13:27:59.595Z,10.10
2019-04-10T13:31:03.613Z,9.90
2019-04-10T13:34:07.420Z,9.90
2019-04-10T13:37:12.330Z,10.00
2019-04-10T13:40:19.432Z,10.00
2019-04-10T13:43:23.695Z,10.00
2019-04-10T13:46:28.898Z,10.00
2019-04-10T13:49:33.777Z,10.00
2019-04-10T13:52:40.460Z,9.90
2019-04-10T13:55:44.468Z,10.10
2019-04-10T13:58:48.778Z,10.00
2019-04-10T14:01:52.673Z,10.20
2019-04-10T14:04:57.445Z,10.20
2019-04-10T14:08:02.110Z,9.90
2019-04-10T14:11:06.034Z,10.00
2019-04-10T14:14:10.605Z,10.00
2019-04-10T14:17:15.036Z,10.10
2019-04-10T14:20:20.377Z,10.20
2019-04-10T14:23:29.486Z,9.90
2019-04-10T14:26:52.729Z,9.70
2019-04-10T14:29:56.711Z,9.80
2019-04-10T14:33:00.847Z,9.90
2019-04-10T14:36:05.569Z,10.00
2019-04-10T14:39:16.762Z,10.00
2019-04-10T14:42:18.302Z,9.90
2019-04-10T14:45:23.522Z,9.90
2019-04-10T14:48:27.891Z,10.00
2019-04-10T14:51:32.588Z,9.70
2019-04-10T14:54:37.550Z,9.70
2019-04-10T14:57:41.792Z,9.60
2019-04-10T15:00:47.174Z,9.50
2019-04-10T15:03:51.024Z,9.50
2019-04-10T15:06:55.592Z,9.60
2019-04-10T15:09:59.600Z,9.60
2019-04-10T15:13:12.109Z,9.50
2019-04-10T15:16:09.174Z,9.50
2019-04-10T15:19:13.154Z,9.40
2019-04-10T15:22:17.821Z,9.30
2019-04-10T15:25:22.919Z,9.10
2019-04-10T15:28:27.447Z,9.20
2019-04-10T15:31:31.357Z,9.20
2019-04-10T15:34:35.425Z,9.10
2019-04-10T15:37:39.535Z,9.10
2019-04-10T15:40:44.047Z,9.10
2019-04-10T15:43:48.014Z,9.00
2019-04-10T15:46:51.855Z,9.00
2019-04-10T15:49:55.680Z,8.90
2019-04-10T15:52:59.958Z,9.10
2019-04-10T15:56:03.757Z,8.90
2019-04-10T15:59:08.102Z,8.90
2019-04-10T16:02:13.176Z,8.80
2019-04-10T16:05:17.491Z,8.70
2019-04-10T16:08:22.114Z,8.80
2019-04-10T16:11:43.848Z,8.70
2019-04-10T16:14:48.619Z,8.70
2019-04-10T16:17:54.691Z,8.80
2019-04-10T16:20:59.894Z,8.60
2019-04-10T16:24:06.642Z,8.70
2019-04-10T16:27:10.503Z,8.60
2019-04-10T16:30:17.227Z,8.70
2019-04-10T16:33:21.164Z,8.70
2019-04-10T16:36:26.330Z,8.70
2019-04-10T16:39:30.420Z,8.60
2019-04-10T16:42:34.845Z,8.60
2019-04-10T16:45:40.452Z,8.60
2019-04-10T16:48:44.415Z,8.60
2019-04-10T16:51:50.412Z,8.60
2019-04-10T16:54:55.543Z,8.50
2019-04-10T16:57:59.661Z,8.50
2019-04-10T17:01:04.350Z,8.50
2019-04-10T17:04:09.085Z,8.50
2019-04-10T17:07:13.341Z,8.50
2019-04-10T17:10:23.872Z,8.50
2019-04-10T17:13:24.603Z,8.50
2019-04-10T17:16:29.418Z,8.60
2019-04-10T17:19:45.615Z,8.70
2019-04-10T17:22:43.817Z,8.70
2019-04-10T17:25:44.537Z,8.70
2019-04-10T17:28:48.458Z,8.80
2019-04-10T17:31:52.996Z,8.60
2019-04-10T17:34:57.174Z,8.60
2019-04-10T17:38:02.330Z,8.60
2019-04-10T17:41:07.168Z,8.50
2019-04-10T17:44:11.718Z,8.50
2019-04-10T17:47:16.591Z,8.50
2019-04-10T17:50:22.372Z,8.60
2019-04-10T17:53:26.428Z,8.50
2019-04-10T17:56:30.484Z,8.50
2019-04-10T17:59:34.650Z,8.60
2019-04-10T18:02:41.001Z,8.60
2019-04-10T18:05:45.293Z,8.50
2019-04-10T18:08:49.338Z,8.50
2019-04-10T18:11:54.042Z,8.40
2019-04-10T18:14:58.184Z,8.40
2019-04-10T18:18:03.088Z,8.40
2019-04-10T18:21:07.253Z,8.40
2019-04-10T18:24:12.367Z,8.40
2019-04-10T18:27:16.405Z,8.30
2019-04-10T18:30:20.415Z,8.40
2019-04-10T18:33:24.543Z,8.50
2019-04-10T18:36:28.473Z,8.40
2019-04-10T18:39:32.588Z,8.40
2019-04-10T18:42:37.323Z,8.50
2019-04-10T18:45:53.957Z,8.30
2019-04-10T18:48:48.553Z,8.30
2019-04-10T18:51:54.312Z,8.30
2019-04-10T18:54:58.526Z,8.20
2019-04-10T18:58:03.974Z,8.30
2019-04-10T19:01:13.902Z,8.30
2019-04-10T19:04:20.446Z,8.30
2019-04-10T19:07:25.115Z,8.30
2019-04-10T19:10:29.047Z,8.30
2019-04-10T19:13:32.903Z,8.20
2019-04-10T19:16:37.413Z,8.20
2019-04-10T19:19:42.381Z,8.40
2019-04-10T19:22:48.587Z,8.40
2019-04-10T19:25:52.649Z,8.40
2019-04-10T19:28:57.131Z,8.20
2019-04-10T19:32:03.415Z,8.10
2019-04-10T19:35:08.196Z,8.30
2019-04-10T19:38:12.065Z,8.30
2019-04-10T19:41:25.231Z,8.20
2019-04-10T19:44:21.397Z,8.20
2019-04-10T19:47:26.324Z,8.20
2019-04-10T19:50:30.286Z,8.20
2019-04-10T19:53:35.274Z,8.20
2019-04-10T19:56:40.398Z,8.20
2019-04-10T19:59:44.409Z,8.10
2019-04-10T20:02:49.023Z,8.10
2019-04-10T20:05:53.456Z,8.10
2019-04-10T20:08:57.880Z,8.00
2019-04-10T20:12:02.451Z,8.00
2019-04-10T20:15:10.061Z,8.00
2019-04-10T20:18:14.686Z,8.10
2019-04-10T20:21:19.634Z,8.10
2019-04-10T20:24:23.545Z,8.10
2019-04-10T20:27:27.799Z,8.10
2019-04-10T20:30:33.155Z,8.10
2019-04-10T20:33:36.985Z,8.10
2019-04-10T20:36:41.599Z,8.00
2019-04-10T20:39:47.450Z,8.00
2019-04-10T20:42:51.406Z,8.00
2019-04-10T20:45:55.935Z,8.00
2019-04-10T20:49:00.573Z,8.00
2019-04-10T20:52:04.759Z,7.90
2019-04-10T20:55:09.128Z,7.90
2019-04-10T20:58:13.406Z,7.80
2019-04-10T21:01:17.288Z,7.80
2019-04-10T21:04:21.327Z,7.80
2019-04-10T21:07:25.563Z,7.80
2019-04-10T21:10:29.469Z,7.80
2019-04-10T21:13:34.063Z,7.80
2019-04-10T21:16:37.964Z,7.70
2019-04-10T21:19:43.076Z,7.70
2019-04-10T21:22:47.277Z,7.70
2019-04-10T21:25:51.870Z,7.80
2019-04-10T21:28:55.836Z,7.80
2019-04-10T21:32:01.377Z,7.90
2019-04-10T21:35:07.806Z,7.80
2019-04-10T21:38:11.734Z,7.80
2019-04-10T21:41:16.688Z,7.80
2019-04-10T21:44:20.675Z,7.70
2019-04-10T21:47:25.602Z,7.70
2019-04-10T21:50:29.556Z,7.70
2019-04-10T21:53:34.441Z,7.70
2019-04-10T21:56:38.905Z,7.70
2019-04-10T21:59:43.139Z,7.60
2019-04-10T22:02:48.432Z,7.60
2019-04-10T22:05:53.964Z,7.60
2019-04-10T22:09:01.920Z,7.70
2019-04-10T22:12:23.972Z,7.80
2019-04-10T22:15:20.389Z,7.70
2019-04-10T22:18:25.239Z,7.60
2019-04-10T22:21:29.212Z,7.60
2019-04-10T22:24:34.089Z,7.70
2019-04-10T22:27:37.934Z,7.60
2019-04-10T22:30:41.835Z,7.70
2019-04-10T22:33:46.589Z,7.70
2019-04-10T22:36:50.619Z,7.70
2019-04-10T22:39:54.591Z,7.60
2019-04-10T22:42:59.513Z,7.60
2019-04-10T22:46:04.616Z,7.50
2019-04-10T22:49:08.494Z,7.50
2019-04-10T22:52:12.283Z,7.50
2019-04-10T22:55:16.186Z,7.60
2019-04-10T22:58:21.109Z,7.60
2019-04-10T23:01:25.034Z,7.60
2019-04-10T23:04:28.861Z,7.50
2019-04-10T23:07:33.635Z,7.50
2019-04-10T23:10:37.459Z,7.50
2019-04-10T23:13:42.497Z,7.50
2019-04-10T23:16:46.463Z,7.50
2019-04-10T23:19:50.344Z,7.50
2019-04-10T23:22:54.824Z,7.50
2019-04-10T23:25:58.704Z,7.50
2019-04-10T23:29:02.534Z,7.60
2019-04-10T23:32:06.394Z,7.60
2019-04-10T23:35:10.289Z,7.60
2019-04-10T23:38:15.296Z,7.70
2019-04-10T23:41:19.121Z,7.80
2019-04-10T23:44:23.015Z,7.60
2019-04-10T23:47:26.839Z,7.30
2019-04-10T23:50:30.708Z,7.30
2019-04-10T23:53:34.524Z,7.30
2019-04-10T23:56:38.383Z,7.20
2019-04-10T23:59:42.637Z,7.10
